Terminal Aerodrome Forecast
Issued by NWS

Current Version | Previous Version | Graphics & Text | Print | Product List | Glossary On
Versions: 1 2 3 4 5 6 7 8 9 10 11 12 13 14 15 16 17 18 19 20 21 22 23
000
FTUS41 KILN 311300 AAA
TAFLCK
TAF AMD
KLCK 311400Z 3114/0112 18006KT 3SM -SHRA BR SCT007 OVC012
      TEMPO 3114/3116 1 1/2SM SHRA BKN007
     FM311800 20010KT P6SM VCTS OVC015CB
     FM312100 20009KT P6SM VCTS OVC025CB
     FM010100 19006KT P6SM BKN050
     FM010900 21004KT 3SM BR OVC015=

USA.gov is the U.S. government's official web portal to all federal, state and local government web resources and services.